createdAt,value
2019-01-21T00:00:34.624Z,101984.89
2019-01-21T00:05:38.650Z,101994.02
2019-01-21T00:10:42.670Z,101995.73
2019-01-21T00:15:55.929Z,101995.29
2019-01-21T00:20:59.959Z,101991.70
2019-01-21T00:26:04.112Z,101993.74
2019-01-21T00:31:08.180Z,101984.20
2019-01-21T00:36:12.537Z,101983.92
2019-01-21T00:41:16.585Z,101988.39
2019-01-21T00:46:20.642Z,101993.55
2019-01-21T00:51:24.859Z,101990.73
2019-01-21T00:56:28.915Z,101987.52
2019-01-21T01:01:33.010Z,101985.48
2019-01-21T01:06:37.617Z,101983.94
2019-01-21T01:11:41.680Z,101988.11
2019-01-21T01:16:45.827Z,101991.52
2019-01-21T01:21:49.855Z,101989.13
2019-01-21T01:26:53.932Z,101991.80
2019-01-21T01:31:58.447Z,101992.55
2019-01-21T01:37:02.435Z,101995.33
2019-01-21T01:42:06.517Z,101992.02
2019-01-21T01:47:10.994Z,101985.23
2019-01-21T01:52:15.070Z,101985.55
2019-01-21T01:57:19.172Z,101993.24
2019-01-21T02:02:23.308Z,101995.29
2019-01-21T02:07:29.320Z,101993.35
2019-01-21T02:12:34.349Z,101983.41
2019-01-21T02:17:40.333Z,101990.05
2019-01-21T02:22:46.326Z,101994.21
2019-01-21T02:28:37.643Z,101992.71
2019-01-21T02:34:12.230Z,101991.28
2019-01-21T02:40:14.699Z,102003.91
2019-01-21T02:45:33.759Z,101993.50
2019-01-21T02:51:10.932Z,101987.64
2019-01-21T02:56:59.439Z,101985.40
2019-01-21T03:02:40.106Z,101981.55
2019-01-21T03:07:55.974Z,101979.37
2019-01-21T03:13:39.541Z,101980.91
2019-01-21T03:19:42.545Z,101978.75
2019-01-21T03:25:21.911Z,101975.89
2019-01-21T03:30:53.613Z,101988.50
2019-01-21T03:36:25.498Z,101978.56
2019-01-21T03:41:39.643Z,101985.11
2019-01-21T03:47:24.880Z,101976.92
2019-01-21T03:52:46.099Z,101982.28
2019-01-21T03:58:20.154Z,101977.38
2019-01-21T04:03:51.504Z,101971.97
2019-01-21T04:09:21.674Z,101973.03
2019-01-21T04:15:20.356Z,101982.13
2019-01-21T04:21:03.965Z,101978.94
2019-01-21T04:26:35.120Z,101981.80
2019-01-21T04:32:13.483Z,101977.58
2019-01-21T04:37:57.916Z,101972.50
2019-01-21T04:43:36.849Z,101966.73
2019-01-21T04:49:11.856Z,101956.55
2019-01-21T04:55:02.590Z,101952.78
2019-01-21T05:00:42.133Z,101955.56
2019-01-21T05:06:19.172Z,101947.41
2019-01-21T05:12:16.081Z,101956.73
2019-01-21T05:17:45.530Z,101956.69
2019-01-21T05:23:23.320Z,101953.89
2019-01-21T05:29:05.705Z,101953.59
2019-01-21T05:34:37.177Z,101953.71
2019-01-21T05:39:59.307Z,101947.17
2019-01-21T05:45:38.185Z,101943.24
2019-01-21T05:51:38.946Z,101937.91
2019-01-21T05:57:24.265Z,101942.98
2019-01-21T06:02:57.884Z,101945.16
2019-01-21T06:08:55.516Z,101949.28
2019-01-21T06:14:43.218Z,101949.61
2019-01-21T06:20:15.815Z,101951.89
2019-01-21T06:25:40.121Z,101952.53
2019-01-21T06:31:07.410Z,101947.27
2019-01-21T06:36:51.687Z,101951.75
2019-01-21T06:42:32.345Z,101964.94
2019-01-21T06:48:29.701Z,101972.46
2019-01-21T06:54:00.396Z,101977.36
2019-01-21T06:59:34.336Z,101976.98
2019-01-21T07:05:17.296Z,101980.95
2019-01-21T07:11:08.386Z,101967.90
2019-01-21T07:16:43.290Z,101970.97
2019-01-21T07:22:12.131Z,101968.53
2019-01-21T07:27:44.560Z,101966.63
2019-01-21T07:33:27.497Z,101975.89
2019-01-21T07:39:06.111Z,101976.23
2019-01-21T07:44:35.583Z,101977.54
2019-01-21T07:50:08.490Z,101976.79
2019-01-21T07:55:41.949Z,101980.42
2019-01-21T08:01:04.338Z,101978.87
2019-01-21T08:06:18.171Z,101972.87
2019-01-21T08:12:15.468Z,101966.28
2019-01-21T08:18:03.453Z,101969.34
2019-01-21T08:23:40.527Z,101968.15
2019-01-21T08:29:11.320Z,101976.44
2019-01-21T08:34:52.054Z,101969.25
2019-01-21T08:40:17.727Z,101977.91
2019-01-21T08:46:05.989Z,101984.34
2019-01-21T08:52:00.021Z,101983.65
2019-01-21T08:57:50.570Z,101989.77
2019-01-21T09:03:44.540Z,101990.41
2019-01-21T09:09:22.464Z,101993.66
2019-01-21T09:15:01.031Z,101989.00
2019-01-21T09:20:46.257Z,101988.55
2019-01-21T09:26:21.290Z,101989.98
2019-01-21T09:31:50.436Z,101993.26
2019-01-21T09:37:18.292Z,101993.02
2019-01-21T09:43:02.607Z,101998.26
2019-01-21T09:48:04.934Z,101995.55
2019-01-21T09:53:09.099Z,101987.80
2019-01-21T09:58:13.196Z,101987.52
2019-01-21T10:03:17.529Z,101986.05
2019-01-21T10:08:43.243Z,101977.43
2019-01-21T10:14:12.181Z,101973.69
2019-01-21T10:19:52.811Z,101967.80
2019-01-21T10:25:41.232Z,101964.19
2019-01-21T10:31:03.248Z,101951.56
2019-01-21T10:36:28.938Z,101941.96
2019-01-21T10:42:11.873Z,101940.40
2019-01-21T10:47:40.105Z,101930.80
2019-01-21T10:53:16.616Z,101926.97
2019-01-21T10:58:40.473Z,101928.45
2019-01-21T11:04:17.066Z,101921.39
2019-01-21T11:10:01.781Z,101909.75
2019-01-21T11:15:27.402Z,101898.75
2019-01-21T11:21:12.631Z,101894.03
2019-01-21T11:26:57.011Z,101887.39
2019-01-21T11:33:09.458Z,101871.13
2019-01-21T11:38:50.249Z,101862.18
2019-01-21T11:44:30.818Z,101849.59
2019-01-21T11:50:11.704Z,101854.39
2019-01-21T11:56:04.673Z,101848.62
2019-01-21T12:01:39.374Z,101846.00
2019-01-21T12:06:56.881Z,101861.04
2019-01-21T12:12:29.157Z,101858.34
2019-01-21T12:18:12.681Z,101846.66
2019-01-21T12:23:57.950Z,101838.38
2019-01-21T12:29:18.022Z,101820.16
2019-01-21T12:34:48.567Z,101827.89
2019-01-21T12:40:27.260Z,101829.87
2019-01-21T12:46:14.992Z,101826.36
2019-01-21T12:51:56.575Z,101814.05
2019-01-21T12:57:41.838Z,101812.64
2019-01-21T13:03:44.588Z,101793.62
2019-01-21T13:09:25.992Z,101798.91
2019-01-21T13:14:57.641Z,101794.61
2019-01-21T13:20:41.229Z,101785.92
2019-01-21T13:26:39.067Z,101757.20
2019-01-21T13:32:17.223Z,101743.73
2019-01-21T13:38:14.276Z,101743.91
2019-01-21T13:43:52.932Z,101739.31
2019-01-21T13:49:25.040Z,101737.30
2019-01-21T13:55:11.673Z,101730.46
2019-01-21T14:00:50.187Z,101726.52
2019-01-21T14:06:27.379Z,101718.84
2019-01-21T14:11:55.883Z,101711.91
2019-01-21T14:17:34.115Z,101703.36
2019-01-21T14:23:02.517Z,101708.60
2019-01-21T14:28:47.672Z,101695.94
2019-01-21T14:34:05.187Z,101686.81
2019-01-21T14:39:38.986Z,101684.67
2019-01-21T14:45:19.998Z,101680.63
2019-01-21T14:51:06.455Z,101675.43
2019-01-21T14:56:25.343Z,101670.27
2019-01-21T15:01:52.226Z,101659.63
2019-01-21T15:07:07.273Z,101658.39
2019-01-21T15:12:45.025Z,101659.09
2019-01-21T15:18:13.823Z,101663.14
2019-01-21T15:24:03.770Z,101660.34
2019-01-21T15:29:42.034Z,101655.47
2019-01-21T15:35:30.502Z,101645.66
2019-01-21T15:41:09.988Z,101637.31
2019-01-21T15:46:46.634Z,101631.89
2019-01-21T15:51:58.744Z,101622.81
2019-01-21T15:57:59.369Z,101640.23
2019-01-21T16:03:23.033Z,101638.47
2019-01-21T16:09:06.824Z,101644.63
2019-01-21T16:14:20.499Z,101648.16
2019-01-21T16:20:00.979Z,101651.92
2019-01-21T16:25:39.794Z,101646.91
2019-01-21T16:31:07.689Z,101651.78
2019-01-21T16:36:23.115Z,101653.66
2019-01-21T16:41:50.781Z,101657.14
2019-01-21T16:46:56.244Z,101651.33
2019-01-21T16:52:00.801Z,101638.44
2019-01-21T16:57:05.086Z,101619.05
2019-01-21T17:02:09.265Z,101593.79
2019-01-21T17:07:13.687Z,101576.03
2019-01-21T17:12:17.807Z,101565.43
2019-01-21T17:17:23.284Z,101572.10
2019-01-21T17:22:41.671Z,101573.54
2019-01-21T17:27:45.715Z,101577.69
2019-01-21T17:32:49.816Z,101573.99
2019-01-21T17:37:53.854Z,101569.11
2019-01-21T17:42:57.857Z,101576.75
2019-01-21T17:48:02.828Z,101589.99
2019-01-21T17:53:06.968Z,101599.19
2019-01-21T17:58:11.317Z,101596.77
2019-01-21T18:03:15.353Z,101589.52
2019-01-21T18:08:19.698Z,101592.92
2019-01-21T18:13:27.090Z,101592.47
2019-01-21T18:18:31.787Z,101588.16
2019-01-21T18:23:36.182Z,101580.28
2019-01-21T18:28:40.190Z,101583.69
2019-01-21T18:33:44.305Z,101559.19
2019-01-21T18:38:48.400Z,101562.90
2019-01-21T18:43:54.274Z,101572.41
2019-01-21T18:48:58.341Z,101568.31
2019-01-21T18:54:02.476Z,101565.50
2019-01-21T18:59:06.499Z,101556.70
2019-01-21T19:04:10.752Z,101556.85
2019-01-21T19:09:14.939Z,101547.46
2019-01-21T19:14:19.176Z,101548.48
2019-01-21T19:19:25.209Z,101553.26
2019-01-21T19:24:29.740Z,101560.08
2019-01-21T19:29:33.821Z,101554.20
2019-01-21T19:34:38.138Z,101549.67
2019-01-21T19:39:43.148Z,101545.55
2019-01-21T19:44:47.536Z,101542.13
2019-01-21T19:49:56.534Z,101543.52
2019-01-21T19:55:03.822Z,101546.00
2019-01-21T20:00:14.390Z,101546.90
2019-01-21T20:05:24.908Z,101546.04
2019-01-21T20:10:33.809Z,101544.92
2019-01-21T20:15:42.957Z,101540.48
2019-01-21T20:20:50.682Z,101524.39
2019-01-21T20:25:58.243Z,101526.00
2019-01-21T20:31:05.749Z,101527.16
2019-01-21T20:36:14.266Z,101525.55
2019-01-21T20:41:22.052Z,101516.20
2019-01-21T20:46:26.231Z,101508.60
2019-01-21T20:51:32.664Z,101511.88
2019-01-21T20:56:37.619Z,101503.84
2019-01-21T21:01:42.734Z,101498.33
2019-01-21T21:06:46.755Z,101497.89
2019-01-21T21:11:52.045Z,101492.70
2019-01-21T21:16:56.271Z,101502.50
2019-01-21T21:22:00.620Z,101494.08
2019-01-21T21:27:05.348Z,101500.16
2019-01-21T21:32:09.379Z,101497.95
2019-01-21T21:37:13.833Z,101493.22
2019-01-21T21:42:17.934Z,101489.61
2019-01-21T21:47:21.964Z,101483.52
2019-01-21T21:52:27.905Z,101476.17
2019-01-21T21:57:32.099Z,101475.30
2019-01-21T22:02:36.188Z,101485.28
2019-01-21T22:07:40.288Z,101480.46
2019-01-21T22:12:45.421Z,101469.91
2019-01-21T22:17:49.496Z,101469.86
2019-01-21T22:22:53.582Z,101460.09
2019-01-21T22:27:57.703Z,101458.69
2019-01-21T22:33:01.780Z,101456.86
2019-01-21T22:38:06.183Z,101450.95
2019-01-21T22:43:10.271Z,101448.79
2019-01-21T22:48:14.637Z,101433.44
2019-01-21T22:53:18.685Z,101428.81
2019-01-21T22:58:22.726Z,101427.77
2019-01-21T23:03:27.927Z,101425.52
2019-01-21T23:08:32.166Z,101422.78
2019-01-21T23:13:36.224Z,101412.53
2019-01-21T23:18:40.321Z,101417.80
2019-01-21T23:23:44.460Z,101407.19
2019-01-21T23:28:48.553Z,101410.19
2019-01-21T23:33:52.609Z,101410.52
2019-01-21T23:38:56.697Z,101402.21
2019-01-21T23:44:00.780Z,101400.87
2019-01-21T23:49:04.857Z,101394.39
2019-01-21T23:54:10.187Z,101395.47
2019-01-21T23:59:14.304Z,101389.06
